createdAt,value
2019-03-17T00:02:24.302Z,6.80
2019-03-17T00:04:52.118Z,8.03
2019-03-17T00:07:19.975Z,8.03
2019-03-17T00:09:47.773Z,8.13
2019-03-17T00:12:15.557Z,7.73
2019-03-17T00:14:43.420Z,8.37
2019-03-17T00:17:11.221Z,9.40
2019-03-17T00:19:39.012Z,7.53
2019-03-17T00:22:06.912Z,8.40
2019-03-17T00:24:34.802Z,8.40
2019-03-17T00:27:02.593Z,8.53
2019-03-17T00:29:30.509Z,9.07
2019-03-17T00:31:58.355Z,7.80
2019-03-17T00:34:26.125Z,8.27
2019-03-17T00:36:54.052Z,10.77
2019-03-17T00:39:21.885Z,8.47
2019-03-17T00:41:49.652Z,9.77
2019-03-17T00:44:17.723Z,9.40
2019-03-17T00:46:45.520Z,9.17
2019-03-17T00:49:13.348Z,9.87
2019-03-17T00:51:41.150Z,11.63
2019-03-17T00:54:08.942Z,9.97
2019-03-17T00:56:36.919Z,10.13
2019-03-17T00:59:04.698Z,9.70
2019-03-17T01:01:32.513Z,10.90
2019-03-17T01:04:00.385Z,10.17
2019-03-17T01:06:28.189Z,9.60
2019-03-17T01:08:55.970Z,9.70
2019-03-17T01:11:23.800Z,9.37
2019-03-17T01:13:51.619Z,8.97
2019-03-17T01:16:19.471Z,10.37
2019-03-17T01:18:47.256Z,10.10
2019-03-17T01:21:15.077Z,8.57
2019-03-17T01:23:42.890Z,10.30
2019-03-17T01:26:10.650Z,9.07
2019-03-17T01:28:38.525Z,9.87
2019-03-17T01:31:06.418Z,8.80
2019-03-17T01:33:34.239Z,8.13
2019-03-17T01:36:02.092Z,9.40
2019-03-17T01:38:29.928Z,9.53
2019-03-17T01:40:57.785Z,9.20
2019-03-17T01:43:25.605Z,9.73
2019-03-17T01:45:53.390Z,8.17
2019-03-17T01:48:21.274Z,7.70
2019-03-17T01:50:49.084Z,8.30
2019-03-17T01:53:16.877Z,8.43
2019-03-17T01:55:44.700Z,8.80
2019-03-17T01:58:12.663Z,9.33
2019-03-17T02:00:40.871Z,7.77
2019-03-17T02:03:08.681Z,8.57
2019-03-17T02:05:36.559Z,6.70
2019-03-17T02:08:04.334Z,9.03
2019-03-17T02:10:32.140Z,7.60
2019-03-17T02:13:00.142Z,8.00
2019-03-17T02:15:27.985Z,10.00
2019-03-17T02:17:55.750Z,6.40
2019-03-17T02:20:23.607Z,6.53
2019-03-17T02:22:51.421Z,6.90
2019-03-17T02:25:19.280Z,7.30
2019-03-17T02:27:47.097Z,7.93
2019-03-17T02:30:14.961Z,6.60
2019-03-17T02:32:42.803Z,6.33
2019-03-17T02:35:10.601Z,8.23
2019-03-17T02:37:39.296Z,6.63
2019-03-17T02:40:07.338Z,6.07
2019-03-17T02:42:35.177Z,8.17
2019-03-17T02:45:03.297Z,6.70
2019-03-17T02:47:31.111Z,6.50
2019-03-17T02:49:58.932Z,5.27
2019-03-17T02:52:27.618Z,5.60
2019-03-17T02:54:55.417Z,6.83
2019-03-17T02:57:23.235Z,5.83
2019-03-17T02:59:51.092Z,5.63
2019-03-17T03:02:18.906Z,5.60
2019-03-17T03:04:46.668Z,5.23
2019-03-17T03:07:14.535Z,6.03
2019-03-17T03:09:42.387Z,5.07
2019-03-17T03:12:10.180Z,5.73
2019-03-17T03:14:37.959Z,5.40
2019-03-17T03:17:05.771Z,5.50
2019-03-17T03:19:33.592Z,5.30
2019-03-17T03:22:01.504Z,6.13
2019-03-17T03:24:29.323Z,5.90
2019-03-17T03:26:57.117Z,5.10
2019-03-17T03:29:27.393Z,4.83
2019-03-17T03:31:54.601Z,4.63
2019-03-17T03:34:22.396Z,6.63
2019-03-17T03:36:50.239Z,6.33
2019-03-17T03:39:18.199Z,5.47
2019-03-17T03:41:46.019Z,5.90
2019-03-17T03:44:13.848Z,4.70
2019-03-17T03:46:41.639Z,5.43
2019-03-17T03:49:09.444Z,5.10
2019-03-17T03:51:37.248Z,7.93
2019-03-17T03:54:05.085Z,5.20
2019-03-17T03:56:32.931Z,8.70
2019-03-17T03:59:00.691Z,5.30
2019-03-17T04:01:28.574Z,5.13
2019-03-17T04:03:56.370Z,6.00
2019-03-17T04:06:26.727Z,5.00
2019-03-17T04:08:53.838Z,7.07
2019-03-17T04:11:21.648Z,7.93
2019-03-17T04:13:49.423Z,4.93
2019-03-17T04:16:17.254Z,7.57
2019-03-17T04:18:45.059Z,5.90
2019-03-17T04:21:12.948Z,4.80
2019-03-17T04:23:40.734Z,7.80
2019-03-17T04:26:08.522Z,6.50
2019-03-17T04:28:36.375Z,6.90
2019-03-17T04:31:04.182Z,6.37
2019-03-17T04:33:31.964Z,6.00
2019-03-17T04:35:59.823Z,4.33
2019-03-17T04:38:27.682Z,4.93
2019-03-17T04:40:55.494Z,4.40
2019-03-17T04:43:23.405Z,5.87
2019-03-17T04:45:51.178Z,5.23
2019-03-17T04:48:19.062Z,4.53
2019-03-17T04:50:46.978Z,4.53
2019-03-17T04:53:14.769Z,5.73
2019-03-17T04:55:42.551Z,4.47
2019-03-17T04:58:10.360Z,5.33
2019-03-17T05:00:38.164Z,4.00
2019-03-17T05:03:06.024Z,4.23
2019-03-17T05:05:33.838Z,4.63
2019-03-17T05:08:01.627Z,4.33
2019-03-17T05:10:29.514Z,4.33
2019-03-17T05:12:57.374Z,4.87
2019-03-17T05:15:25.161Z,3.23
2019-03-17T05:17:53.070Z,2.93
2019-03-17T05:20:20.875Z,3.87
2019-03-17T05:22:48.691Z,3.67
2019-03-17T05:25:16.545Z,4.07
2019-03-17T05:27:44.355Z,3.67
2019-03-17T05:30:12.288Z,2.63
2019-03-17T05:32:40.099Z,2.57
2019-03-17T05:35:07.889Z,2.83
2019-03-17T05:37:35.751Z,3.63
2019-03-17T05:40:03.796Z,3.33
2019-03-17T05:42:31.638Z,2.60
2019-03-17T05:44:59.477Z,3.00
2019-03-17T05:47:27.348Z,3.33
2019-03-17T05:49:55.188Z,2.40
2019-03-17T05:52:23.005Z,2.57
2019-03-17T05:54:50.770Z,3.27
2019-03-17T05:57:18.656Z,2.23
2019-03-17T05:59:46.431Z,3.60
2019-03-17T06:02:14.237Z,2.53
2019-03-17T06:04:42.121Z,2.20
2019-03-17T06:07:18.678Z,2.47
2019-03-17T06:09:39.496Z,2.50
2019-03-17T06:12:07.312Z,2.10
2019-03-17T06:14:35.088Z,2.00
2019-03-17T06:17:02.890Z,2.17
2019-03-17T06:19:30.764Z,2.10
2019-03-17T06:22:00.450Z,1.80
2019-03-17T06:24:28.247Z,2.73
2019-03-17T06:26:56.097Z,1.80
2019-03-17T06:29:23.936Z,2.13
2019-03-17T06:31:51.705Z,1.70
2019-03-17T06:34:19.577Z,1.70
2019-03-17T06:36:47.352Z,1.70
2019-03-17T06:39:15.158Z,1.77
2019-03-17T06:41:43.014Z,1.57
2019-03-17T06:44:10.857Z,1.70
2019-03-17T06:46:38.657Z,1.50
2019-03-17T06:49:06.528Z,1.57
2019-03-17T06:51:34.376Z,1.50
2019-03-17T06:54:02.210Z,1.50
2019-03-17T06:56:30.060Z,1.67
2019-03-17T06:58:57.874Z,1.40
2019-03-17T07:01:25.749Z,1.40
2019-03-17T07:03:53.536Z,1.60
2019-03-17T07:06:21.351Z,1.40
2019-03-17T07:08:49.206Z,1.60
2019-03-17T07:11:17.018Z,1.83
2019-03-17T07:13:44.806Z,2.50
2019-03-17T07:16:12.658Z,1.70
2019-03-17T07:18:40.775Z,1.60
2019-03-17T07:21:08.614Z,1.80
2019-03-17T07:23:36.516Z,2.60
2019-03-17T07:26:04.303Z,1.37
2019-03-17T07:28:32.078Z,1.57
2019-03-17T07:30:59.988Z,1.70
2019-03-17T07:33:27.792Z,1.40
2019-03-17T07:35:55.593Z,1.33
2019-03-17T07:38:23.487Z,2.60
2019-03-17T07:40:51.347Z,1.70
2019-03-17T07:43:19.185Z,1.63
2019-03-17T07:45:47.167Z,1.73
2019-03-17T07:48:14.970Z,2.40
2019-03-17T07:50:42.849Z,2.07
2019-03-17T07:53:10.773Z,2.40
2019-03-17T07:55:38.587Z,1.50
2019-03-17T07:58:06.434Z,1.30
2019-03-17T08:00:34.271Z,1.30
2019-03-17T08:03:02.411Z,1.30
2019-03-17T08:05:30.442Z,1.30
2019-03-17T08:08:08.818Z,1.40
2019-03-17T08:10:27.919Z,1.60
2019-03-17T08:12:55.800Z,1.50
2019-03-17T08:15:23.615Z,1.90
2019-03-17T08:17:51.633Z,1.60
2019-03-17T08:20:19.511Z,2.90
2019-03-17T08:22:47.303Z,1.57
2019-03-17T08:25:15.104Z,1.30
2019-03-17T08:27:43.040Z,1.40
2019-03-17T08:30:10.879Z,1.33
2019-03-17T08:32:41.055Z,1.33
2019-03-17T08:35:08.634Z,1.30
2019-03-17T08:37:36.469Z,1.30
2019-03-17T08:40:05.341Z,1.30
2019-03-17T08:42:33.229Z,1.70
2019-03-17T08:45:01.145Z,1.40
2019-03-17T08:47:29.025Z,1.40
2019-03-17T08:49:56.843Z,1.27
2019-03-17T08:52:24.673Z,1.23
2019-03-17T08:54:53.101Z,1.17
2019-03-17T08:57:20.918Z,1.43
2019-03-17T08:59:50.131Z,1.20
2019-03-17T09:02:18.403Z,1.20
2019-03-17T09:04:46.284Z,1.20
2019-03-17T09:07:15.901Z,1.30
2019-03-17T09:09:43.886Z,2.63
2019-03-17T09:12:11.844Z,1.40
2019-03-17T09:14:39.732Z,1.40
2019-03-17T09:17:14.335Z,1.40
2019-03-17T09:19:39.667Z,1.40
2019-03-17T09:22:07.644Z,1.50
2019-03-17T09:24:35.610Z,1.40
2019-03-17T09:27:03.514Z,2.43
2019-03-17T09:29:31.569Z,1.50
2019-03-17T09:32:01.144Z,1.40
2019-03-17T09:34:29.133Z,1.67
2019-03-17T09:36:56.948Z,1.60
2019-03-17T09:39:24.793Z,1.50
2019-03-17T09:41:52.650Z,1.40
2019-03-17T09:44:20.439Z,1.40
2019-03-17T09:46:48.303Z,1.60
2019-03-17T09:49:16.100Z,1.50
2019-03-17T09:51:43.997Z,1.50
2019-03-17T09:54:11.963Z,1.60
2019-03-17T09:56:39.760Z,1.57
2019-03-17T09:59:07.601Z,1.70
2019-03-17T10:01:35.504Z,1.70
2019-03-17T10:04:03.775Z,1.50
2019-03-17T10:06:35.688Z,1.60
2019-03-17T10:09:05.525Z,1.70
2019-03-17T10:11:35.794Z,1.70
2019-03-17T10:14:03.975Z,1.90
2019-03-17T10:16:31.866Z,2.07
2019-03-17T10:19:00.208Z,1.87
2019-03-17T10:21:28.112Z,2.10
2019-03-17T10:23:56.625Z,2.17
2019-03-17T10:26:24.522Z,2.40
2019-03-17T10:28:52.333Z,3.10
2019-03-17T10:31:20.248Z,2.40
2019-03-17T10:33:48.082Z,2.87
2019-03-17T10:36:15.962Z,1.93
2019-03-17T10:38:43.851Z,2.10
2019-03-17T10:41:11.662Z,2.93
2019-03-17T10:43:39.483Z,2.37
2019-03-17T10:46:07.456Z,3.30
2019-03-17T10:48:35.713Z,3.20
2019-03-17T10:51:03.683Z,2.37
2019-03-17T10:53:31.606Z,1.97
2019-03-17T10:55:59.901Z,3.77
2019-03-17T10:58:27.730Z,3.67
2019-03-17T11:00:55.522Z,3.23
2019-03-17T11:03:23.461Z,2.20
2019-03-17T11:05:54.517Z,2.10
2019-03-17T11:08:22.050Z,2.13
2019-03-17T11:10:50.782Z,3.10
2019-03-17T11:13:18.707Z,1.60
2019-03-17T11:15:46.503Z,1.80
2019-03-17T11:18:14.372Z,2.20
2019-03-17T11:20:42.263Z,2.00
2019-03-17T11:23:10.051Z,3.00
2019-03-17T11:25:37.882Z,2.20
2019-03-17T11:28:05.698Z,2.30
2019-03-17T11:30:33.503Z,2.13
2019-03-17T11:33:01.302Z,1.97
2019-03-17T11:35:29.187Z,2.77
2019-03-17T11:37:57.081Z,3.10
2019-03-17T11:40:24.980Z,2.10
2019-03-17T11:42:52.805Z,2.70
2019-03-17T11:45:20.597Z,1.90
2019-03-17T11:47:48.471Z,2.53
2019-03-17T11:50:16.554Z,2.30
2019-03-17T11:52:44.777Z,2.67
2019-03-17T11:55:12.995Z,2.57
2019-03-17T11:57:40.979Z,3.17
2019-03-17T12:00:10.813Z,3.10
2019-03-17T12:02:38.593Z,3.03
2019-03-17T12:05:07.009Z,2.60
2019-03-17T12:07:34.853Z,2.50
2019-03-17T12:10:03.002Z,2.73
2019-03-17T12:12:30.868Z,3.23
2019-03-17T12:14:58.672Z,3.97
2019-03-17T12:17:26.606Z,4.70
2019-03-17T12:19:54.785Z,3.57
2019-03-17T12:22:22.574Z,3.17
2019-03-17T12:24:50.384Z,5.23
2019-03-17T12:27:19.796Z,5.37
2019-03-17T12:29:47.713Z,5.80
2019-03-17T12:32:15.590Z,5.80
2019-03-17T12:34:43.403Z,6.40
2019-03-17T12:37:11.249Z,5.63
2019-03-17T12:39:39.112Z,4.27
2019-03-17T12:42:06.896Z,9.77
2019-03-17T12:44:34.746Z,2.97
2019-03-17T12:47:02.614Z,4.83
2019-03-17T12:49:30.463Z,2.83
2019-03-17T12:51:58.328Z,2.37
2019-03-17T12:54:26.164Z,4.43
2019-03-17T12:56:54.003Z,2.20
2019-03-17T12:59:21.898Z,3.23
2019-03-17T13:01:49.714Z,2.20
2019-03-17T13:04:17.518Z,4.97
2019-03-17T13:06:45.382Z,3.20
2019-03-17T13:09:13.203Z,5.97
2019-03-17T13:11:41.023Z,5.47
2019-03-17T13:14:08.806Z,3.00
2019-03-17T13:16:36.624Z,4.73
2019-03-17T13:19:04.504Z,3.80
2019-03-17T13:21:32.303Z,3.90
2019-03-17T13:24:00.109Z,4.93
2019-03-17T13:26:28.049Z,4.10
2019-03-17T13:28:55.859Z,4.20
2019-03-17T13:31:25.462Z,4.13
2019-03-17T13:33:53.337Z,8.57
2019-03-17T13:36:21.174Z,4.47
2019-03-17T13:38:49.023Z,5.80
2019-03-17T13:41:16.854Z,4.73
2019-03-17T13:43:44.640Z,5.73
2019-03-17T13:46:12.445Z,6.63
2019-03-17T13:48:40.389Z,4.90
2019-03-17T13:51:08.242Z,5.47
2019-03-17T13:53:36.054Z,6.37
2019-03-17T13:56:03.910Z,9.03
2019-03-17T13:58:31.696Z,4.23
2019-03-17T14:00:59.518Z,5.63
2019-03-17T14:03:27.391Z,5.97
2019-03-17T14:05:55.363Z,6.00
2019-03-17T14:08:23.149Z,6.47
2019-03-17T14:10:50.971Z,5.43
2019-03-17T14:13:18.833Z,6.37
2019-03-17T14:15:46.643Z,6.20
2019-03-17T14:18:17.195Z,9.03
2019-03-17T14:20:45.093Z,6.13
2019-03-17T14:23:12.866Z,7.50
2019-03-17T14:25:40.700Z,6.10
2019-03-17T14:28:08.537Z,4.40
2019-03-17T14:30:36.475Z,6.53
2019-03-17T14:33:04.351Z,5.60
2019-03-17T14:35:32.247Z,5.87
2019-03-17T14:38:00.341Z,5.20
2019-03-17T14:40:28.170Z,5.33
2019-03-17T14:42:56.036Z,6.07
2019-03-17T14:45:23.986Z,4.30
2019-03-17T14:47:51.845Z,6.80
2019-03-17T14:50:19.652Z,5.10
2019-03-17T14:52:47.530Z,4.70
2019-03-17T14:55:15.537Z,6.80
2019-03-17T14:57:43.365Z,4.10
2019-03-17T15:00:13.877Z,3.47
2019-03-17T15:02:41.670Z,7.90
2019-03-17T15:05:09.602Z,6.50
2019-03-17T15:07:37.541Z,4.93
2019-03-17T15:10:07.196Z,5.40
2019-03-17T15:12:35.072Z,6.47
2019-03-17T15:15:03.205Z,5.37
2019-03-17T15:17:31.021Z,6.97
2019-03-17T15:19:58.914Z,7.33
2019-03-17T15:22:26.776Z,4.90
2019-03-17T15:24:54.584Z,4.47
2019-03-17T15:27:22.464Z,4.23
2019-03-17T15:29:50.248Z,8.43
2019-03-17T15:32:18.046Z,3.67
2019-03-17T15:34:45.901Z,4.87
2019-03-17T15:37:13.696Z,5.23
2019-03-17T15:39:41.574Z,5.60
2019-03-17T15:42:09.388Z,5.67
2019-03-17T15:44:37.155Z,4.60
2019-03-17T15:47:04.982Z,3.23
2019-03-17T15:49:32.780Z,7.03
2019-03-17T15:52:00.663Z,3.70
2019-03-17T15:54:28.517Z,4.87
2019-03-17T15:56:56.339Z,4.67
2019-03-17T15:59:24.223Z,6.20
2019-03-17T16:01:52.007Z,3.83
2019-03-17T16:04:19.839Z,6.10
2019-03-17T16:06:47.711Z,6.37
2019-03-17T16:09:15.545Z,4.03
2019-03-17T16:11:43.365Z,2.83
2019-03-17T16:14:11.238Z,6.87
2019-03-17T16:16:39.030Z,4.03
2019-03-17T16:19:06.816Z,4.63
2019-03-17T16:21:34.666Z,5.17
2019-03-17T16:24:02.455Z,3.93
2019-03-17T16:26:30.356Z,3.60
2019-03-17T16:28:58.163Z,4.30
2019-03-17T16:31:25.965Z,5.67
2019-03-17T16:33:53.825Z,3.47
2019-03-17T16:36:21.633Z,3.83
2019-03-17T16:38:49.405Z,5.13
2019-03-17T16:41:17.218Z,3.07
2019-03-17T16:43:44.998Z,3.57
2019-03-17T16:46:12.884Z,2.37
2019-03-17T16:48:40.717Z,6.13
2019-03-17T16:51:08.508Z,5.03
2019-03-17T16:53:36.393Z,4.67
2019-03-17T16:56:04.223Z,3.23
2019-03-17T16:58:32.037Z,4.00
2019-03-17T17:01:00.010Z,2.60
2019-03-17T17:03:27.828Z,3.30
2019-03-17T17:05:55.626Z,4.57
2019-03-17T17:08:23.520Z,10.40
2019-03-17T17:10:51.331Z,4.27
2019-03-17T17:13:19.124Z,2.83
2019-03-17T17:15:46.979Z,3.37
2019-03-17T17:18:14.764Z,4.43
2019-03-17T17:20:42.730Z,2.63
2019-03-17T17:23:10.528Z,3.00
2019-03-17T17:25:38.337Z,3.17
2019-03-17T17:28:06.200Z,4.93
2019-03-17T17:30:34.059Z,3.57
2019-03-17T17:33:01.853Z,3.93
2019-03-17T17:35:29.680Z,5.03
2019-03-17T17:37:57.554Z,4.73
2019-03-17T17:40:25.354Z,3.33
2019-03-17T17:42:53.155Z,4.13
2019-03-17T17:45:21.117Z,3.60
2019-03-17T17:47:48.922Z,6.80
2019-03-17T17:50:16.889Z,3.10
2019-03-17T17:52:44.905Z,2.50
2019-03-17T17:55:12.908Z,6.20
2019-03-17T17:57:40.725Z,4.57
2019-03-17T18:00:10.561Z,3.87
2019-03-17T18:02:38.442Z,5.33
2019-03-17T18:05:06.471Z,4.27
2019-03-17T18:07:34.270Z,3.63
2019-03-17T18:10:02.046Z,5.40
2019-03-17T18:12:29.951Z,3.73
2019-03-17T18:14:57.744Z,5.17
2019-03-17T18:17:25.551Z,3.57
2019-03-17T18:19:53.430Z,3.70
2019-03-17T18:22:21.220Z,6.43
2019-03-17T18:24:49.048Z,4.53
2019-03-17T18:27:18.180Z,3.10
2019-03-17T18:29:46.152Z,5.20
2019-03-17T18:32:14.033Z,2.87
2019-03-17T18:34:41.902Z,4.07
2019-03-17T18:37:09.677Z,4.60
2019-03-17T18:39:37.548Z,6.77
2019-03-17T18:42:05.430Z,3.13
2019-03-17T18:44:33.237Z,5.33
2019-03-17T18:47:01.039Z,3.53
2019-03-17T18:49:28.858Z,2.77
2019-03-17T18:51:56.731Z,8.37
2019-03-17T18:54:24.634Z,5.23
2019-03-17T18:56:52.464Z,3.23
2019-03-17T18:59:20.391Z,4.17
2019-03-17T19:01:48.166Z,4.90
2019-03-17T19:04:16.007Z,3.20
2019-03-17T19:06:43.856Z,3.30
2019-03-17T19:09:11.671Z,3.80
2019-03-17T19:11:39.483Z,3.07
2019-03-17T19:14:07.354Z,3.77
2019-03-17T19:16:35.118Z,3.10
2019-03-17T19:19:02.916Z,5.00
2019-03-17T19:21:30.767Z,3.87
2019-03-17T19:23:58.621Z,2.13
2019-03-17T19:26:26.426Z,2.67
2019-03-17T19:28:54.240Z,6.00
2019-03-17T19:31:22.061Z,2.63
2019-03-17T19:33:50.015Z,3.90
2019-03-17T19:36:17.800Z,2.90
2019-03-17T19:38:45.656Z,3.73
2019-03-17T19:41:13.451Z,2.07
2019-03-17T19:43:41.225Z,3.47
2019-03-17T19:46:09.086Z,3.70
2019-03-17T19:48:36.883Z,4.17
2019-03-17T19:51:04.705Z,5.53
2019-03-17T19:53:32.621Z,4.00
2019-03-17T19:56:00.463Z,4.47
2019-03-17T19:58:28.269Z,3.10
2019-03-17T20:00:56.128Z,5.73
2019-03-17T20:03:23.952Z,3.53
2019-03-17T20:06:01.704Z,2.53
2019-03-17T20:08:22.366Z,2.80
2019-03-17T20:10:50.141Z,2.50
2019-03-17T20:13:17.954Z,2.77
2019-03-17T20:15:45.832Z,4.93
2019-03-17T20:18:13.632Z,4.30
2019-03-17T20:20:41.403Z,3.43
2019-03-17T20:23:09.275Z,1.60
2019-03-17T20:25:37.088Z,1.97
2019-03-17T20:28:04.897Z,4.33
2019-03-17T20:30:32.733Z,4.80
2019-03-17T20:33:00.543Z,4.00
2019-03-17T20:35:28.333Z,3.77
2019-03-17T20:37:56.213Z,3.50
2019-03-17T20:40:24.006Z,3.33
2019-03-17T20:42:51.852Z,3.83
2019-03-17T20:45:20.577Z,2.97
2019-03-17T20:47:48.636Z,2.00
2019-03-17T20:50:16.463Z,3.63
2019-03-17T20:52:44.271Z,4.00
2019-03-17T20:55:12.102Z,3.83
2019-03-17T20:57:40.176Z,2.63
2019-03-17T21:00:10.208Z,4.33
2019-03-17T21:02:38.012Z,3.07
2019-03-17T21:05:06.497Z,4.00
2019-03-17T21:07:34.325Z,4.47
2019-03-17T21:10:02.159Z,3.20
2019-03-17T21:12:29.970Z,3.70
2019-03-17T21:14:57.836Z,3.80
2019-03-17T21:17:25.673Z,2.87
2019-03-17T21:19:53.479Z,3.40
2019-03-17T21:22:21.297Z,3.73
2019-03-17T21:24:49.120Z,3.13
2019-03-17T21:27:16.979Z,4.53
2019-03-17T21:29:44.785Z,3.30
2019-03-17T21:32:12.573Z,2.30
2019-03-17T21:34:40.392Z,4.73
2019-03-17T21:37:08.208Z,3.13
2019-03-17T21:39:36.075Z,3.23
2019-03-17T21:42:03.907Z,3.40
2019-03-17T21:44:31.709Z,4.30
2019-03-17T21:46:59.656Z,3.77
2019-03-17T21:49:27.484Z,3.60
2019-03-17T21:51:55.253Z,4.67
2019-03-17T21:54:23.142Z,3.87
2019-03-17T21:56:50.984Z,5.57
2019-03-17T21:59:18.805Z,5.73
2019-03-17T22:01:46.635Z,4.37
2019-03-17T22:04:14.404Z,7.40
2019-03-17T22:06:42.303Z,7.03
2019-03-17T22:09:10.156Z,3.87
2019-03-17T22:11:37.962Z,4.07
2019-03-17T22:14:12.067Z,5.27
2019-03-17T22:16:35.392Z,3.37
2019-03-17T22:19:03.257Z,3.47
2019-03-17T22:21:31.060Z,3.63
2019-03-17T22:23:58.861Z,3.60
2019-03-17T22:26:26.712Z,6.23
2019-03-17T22:28:54.503Z,4.10
2019-03-17T22:31:22.300Z,4.33
2019-03-17T22:33:50.133Z,3.30
2019-03-17T22:36:17.997Z,3.70
2019-03-17T22:38:45.790Z,4.43
2019-03-17T22:41:13.603Z,4.97
2019-03-17T22:43:41.406Z,4.20
2019-03-17T22:46:09.264Z,4.70
2019-03-17T22:48:37.084Z,2.00
2019-03-17T22:51:04.866Z,3.83
2019-03-17T22:53:32.745Z,5.03
2019-03-17T22:56:00.552Z,3.43
2019-03-17T22:58:28.397Z,5.50
2019-03-17T23:00:56.919Z,3.77
2019-03-17T23:03:24.712Z,5.07
2019-03-17T23:05:52.508Z,5.53
2019-03-17T23:08:20.370Z,4.60
2019-03-17T23:10:48.142Z,3.57
2019-03-17T23:13:16.009Z,3.70
2019-03-17T23:15:43.823Z,3.47
2019-03-17T23:18:11.644Z,3.83
2019-03-17T23:20:39.500Z,3.53
2019-03-17T23:23:07.299Z,4.23
2019-03-17T23:25:35.078Z,2.73
2019-03-17T23:28:02.946Z,3.87
2019-03-17T23:30:30.752Z,4.50
2019-03-17T23:32:58.572Z,3.87
2019-03-17T23:35:26.384Z,2.93
2019-03-17T23:37:54.194Z,3.53
2019-03-17T23:40:22.011Z,3.67
2019-03-17T23:42:49.819Z,2.77
2019-03-17T23:45:17.653Z,2.83
2019-03-17T23:47:45.514Z,2.97
2019-03-17T23:50:13.326Z,4.10
2019-03-17T23:52:41.156Z,4.70
2019-03-17T23:55:11.497Z,6.77
2019-03-17T23:57:39.437Z,2.40
